Dinant, Belgium
Current Conditions -  °F | °C
As of 9:25 AM on Sunday 23 Nov 2014 (Local Time) from EBFS Reporting Station
Broken Clouds Broken Clouds  
Wind Chill: 43°   Ceiling: 20000
Heat Index: 48°   Visibility: 6mi
Dew Point: 46°   Wind: 12mph
Humidity: 93%   Direction: 160°SSE
Pressure: 30.03"   Gusts: NA
Location:  50.26°N, 4.91°E
Report Text: EBFS 230825Z 16010KT 9999 FEW100 BKN200 09/08 Q1017 BLU
Loading
Personal Weather Stations






























Interactive Weather Map New forecast layout! Learn more

10-Day Weather Forecast

Advertisements
Track Severe Weather on mobile